sensor_id;sensor_type;location;lat;lon;timestamp;P1;durP1;ratioP1;P2;durP2;ratioP2
15216;SDS011;7711;46.634;14.318;2023-07-29T00:00:00;7.10;;;5.70;;
15216;SDS011;7711;46.634;14.318;2023-07-29T00:02:28;6.20;;;5.60;;
15216;SDS011;7711;46.634;14.318;2023-07-29T00:04:57;8.13;;;6.18;;
15216;SDS011;7711;46.634;14.318;2023-07-29T00:07:25;5.90;;;5.38;;
15216;SDS011;7711;46.634;14.318;2023-07-29T00:09:52;6.20;;;5.03;;
15216;SDS011;7711;46.634;14.318;2023-07-29T00:12:19;6.18;;;5.53;;
15216;SDS011;7711;46.634;14.318;2023-07-29T00:14:46;6.10;;;5.57;;
15216;SDS011;7711;46.634;14.318;2023-07-29T00:17:13;7.70;;;5.30;;
15216;SDS011;7711;46.634;14.318;2023-07-29T00:19:40;6.20;;;5.60;;
15216;SDS011;7711;46.634;14.318;2023-07-29T00:22:07;6.60;;;5.05;;
15216;SDS011;7711;46.634;14.318;2023-07-29T00:24:35;6.38;;;5.40;;
15216;SDS011;7711;46.634;14.318;2023-07-29T00:27:02;6.72;;;5.63;;
15216;SDS011;7711;46.634;14.318;2023-07-29T00:29:29;6.07;;;5.47;;
15216;SDS011;7711;46.634;14.318;2023-07-29T00:31:56;5.78;;;5.18;;
15216;SDS011;7711;46.634;14.318;2023-07-29T00:34:24;6.28;;;5.60;;
15216;SDS011;7711;46.634;14.318;2023-07-29T00:36:51;5.80;;;5.28;;
15216;SDS011;7711;46.634;14.318;2023-07-29T00:39:17;6.45;;;5.38;;
15216;SDS011;7711;46.634;14.318;2023-07-29T00:41:46;7.55;;;5.05;;
15216;SDS011;7711;46.634;14.318;2023-07-29T00:44:13;5.95;;;5.38;;
15216;SDS011;7711;46.634;14.318;2023-07-29T00:46:40;7.18;;;5.38;;
15216;SDS011;7711;46.634;14.318;2023-07-29T00:49:07;8.15;;;6.03;;
15216;SDS011;7711;46.634;14.318;2023-07-29T00:51:34;6.43;;;5.82;;
15216;SDS011;7711;46.634;14.318;2023-07-29T00:54:02;6.93;;;5.60;;
15216;SDS011;7711;46.634;14.318;2023-07-29T00:56:29;6.05;;;5.45;;
15216;SDS011;7711;46.634;14.318;2023-07-29T00:58:58;6.13;;;5.53;;
15216;SDS011;7711;46.634;14.318;2023-07-29T01:01:26;5.90;;;5.40;;
15216;SDS011;7711;46.634;14.318;2023-07-29T01:03:54;7.07;;;5.57;;
15216;SDS011;7711;46.634;14.318;2023-07-29T01:06:24;6.57;;;5.53;;
15216;SDS011;7711;46.634;14.318;2023-07-29T01:08:59;7.43;;;5.78;;
15216;SDS011;7711;46.634;14.318;2023-07-29T01:11:33;5.88;;;5.20;;
15216;SDS011;7711;46.634;14.318;2023-07-29T01:14:09;6.90;;;5.85;;
15216;SDS011;7711;46.634;14.318;2023-07-29T01:16:42;6.43;;;5.82;;
15216;SDS011;7711;46.634;14.318;2023-07-29T01:19:16;5.93;;;4.90;;
15216;SDS011;7711;46.634;14.318;2023-07-29T01:21:54;5.70;;;5.20;;
15216;SDS011;7711;46.634;14.318;2023-07-29T01:24:23;7.43;;;5.80;;
15216;SDS011;7711;46.634;14.318;2023-07-29T01:26:50;7.97;;;5.78;;
15216;SDS011;7711;46.634;14.318;2023-07-29T01:29:17;6.32;;;5.70;;
15216;SDS011;7711;46.634;14.318;2023-07-29T01:31:44;6.82;;;5.88;;
15216;SDS011;7711;46.634;14.318;2023-07-29T01:34:17;5.88;;;5.28;;
15216;SDS011;7711;46.634;14.318;2023-07-29T01:36:50;5.90;;;5.35;;
15216;SDS011;7711;46.634;14.318;2023-07-29T01:39:19;6.75;;;5.45;;
15216;SDS011;7711;46.634;14.318;2023-07-29T01:41:49;5.93;;;4.95;;
15216;SDS011;7711;46.634;14.318;2023-07-29T01:44:17;5.80;;;5.30;;
15216;SDS011;7711;46.634;14.318;2023-07-29T01:46:45;8.50;;;5.80;;
15216;SDS011;7711;46.634;14.318;2023-07-29T01:49:13;5.85;;;5.25;;
15216;SDS011;7711;46.634;14.318;2023-07-29T01:51:40;5.80;;;5.18;;
15216;SDS011;7711;46.634;14.318;2023-07-29T01:54:07;6.03;;;5.43;;
15216;SDS011;7711;46.634;14.318;2023-07-29T01:56:34;6.50;;;5.10;;
15216;SDS011;7711;46.634;14.318;2023-07-29T01:59:03;5.50;;;5.00;;
15216;SDS011;7711;46.634;14.318;2023-07-29T02:01:30;9.48;;;5.35;;
15216;SDS011;7711;46.634;14.318;2023-07-29T02:03:57;6.88;;;5.93;;
15216;SDS011;7711;46.634;14.318;2023-07-29T02:06:24;6.18;;;5.57;;
15216;SDS011;7711;46.634;14.318;2023-07-29T02:08:52;7.43;;;5.20;;
15216;SDS011;7711;46.634;14.318;2023-07-29T02:11:20;6.45;;;5.07;;
15216;SDS011;7711;46.634;14.318;2023-07-29T02:13:52;5.10;;;4.60;;
15216;SDS011;7711;46.634;14.318;2023-07-29T02:16:20;5.10;;;4.50;;
15216;SDS011;7711;46.634;14.318;2023-07-29T02:18:48;6.32;;;4.18;;
15216;SDS011;7711;46.634;14.318;2023-07-29T02:21:15;6.05;;;4.03;;
15216;SDS011;7711;46.634;14.318;2023-07-29T02:23:42;4.00;;;3.67;;
15216;SDS011;7711;46.634;14.318;2023-07-29T02:26:09;4.22;;;3.30;;
15216;SDS011;7711;46.634;14.318;2023-07-29T02:28:36;2.83;;;2.50;;
15216;SDS011;7711;46.634;14.318;2023-07-29T02:31:09;3.55;;;2.63;;
15216;SDS011;7711;46.634;14.318;2023-07-29T02:33:42;2.80;;;2.08;;
15216;SDS011;7711;46.634;14.318;2023-07-29T02:36:10;3.17;;;2.38;;
15216;SDS011;7711;46.634;14.318;2023-07-29T02:38:38;2.83;;;2.20;;
15216;SDS011;7711;46.634;14.318;2023-07-29T02:41:04;2.40;;;2.10;;
15216;SDS011;7711;46.634;14.318;2023-07-29T02:43:34;2.88;;;2.20;;
15216;SDS011;7711;46.634;14.318;2023-07-29T02:46:00;6.78;;;2.15;;
15216;SDS011;7711;46.634;14.318;2023-07-29T02:48:28;2.67;;;2.10;;
15216;SDS011;7711;46.634;14.318;2023-07-29T02:50:56;2.45;;;2.03;;
15216;SDS011;7711;46.634;14.318;2023-07-29T02:53:23;3.03;;;2.20;;
15216;SDS011;7711;46.634;14.318;2023-07-29T02:55:50;2.10;;;1.90;;
15216;SDS011;7711;46.634;14.318;2023-07-29T02:58:17;2.25;;;2.03;;
15216;SDS011;7711;46.634;14.318;2023-07-29T03:00:44;2.50;;;2.30;;
15216;SDS011;7711;46.634;14.318;2023-07-29T03:03:13;2.33;;;1.83;;
15216;SDS011;7711;46.634;14.318;2023-07-29T03:05:40;2.10;;;1.88;;
15216;SDS011;7711;46.634;14.318;2023-07-29T03:08:08;2.42;;;1.85;;
15216;SDS011;7711;46.634;14.318;2023-07-29T03:10:35;2.58;;;1.90;;
15216;SDS011;7711;46.634;14.318;2023-07-29T03:13:02;2.97;;;2.30;;
15216;SDS011;7711;46.634;14.318;2023-07-29T03:15:29;3.85;;;1.83;;
15216;SDS011;7711;46.634;14.318;2023-07-29T03:17:59;2.55;;;2.00;;
15216;SDS011;7711;46.634;14.318;2023-07-29T03:20:26;2.20;;;2.00;;
15216;SDS011;7711;46.634;14.318;2023-07-29T03:22:52;2.65;;;2.10;;
15216;SDS011;7711;46.634;14.318;2023-07-29T03:25:21;3.45;;;2.30;;
15216;SDS011;7711;46.634;14.318;2023-07-29T03:27:48;3.50;;;2.00;;
15216;SDS011;7711;46.634;14.318;2023-07-29T03:30:15;2.53;;;2.25;;
15216;SDS011;7711;46.634;14.318;2023-07-29T03:32:45;4.22;;;2.03;;
15216;SDS011;7711;46.634;14.318;2023-07-29T03:35:12;1.95;;;1.83;;
15216;SDS011;7711;46.634;14.318;2023-07-29T03:37:39;2.53;;;2.10;;
15216;SDS011;7711;46.634;14.318;2023-07-29T03:40:06;2.03;;;1.85;;
15216;SDS011;7711;46.634;14.318;2023-07-29T03:42:35;2.60;;;2.30;;
15216;SDS011;7711;46.634;14.318;2023-07-29T03:45:03;2.65;;;2.30;;
15216;SDS011;7711;46.634;14.318;2023-07-29T03:47:30;2.40;;;2.20;;
15216;SDS011;7711;46.634;14.318;2023-07-29T03:49:57;2.83;;;2.42;;
15216;SDS011;7711;46.634;14.318;2023-07-29T03:52:24;4.95;;;2.40;;
15216;SDS011;7711;46.634;14.318;2023-07-29T03:54:51;3.08;;;2.35;;
15216;SDS011;7711;46.634;14.318;2023-07-29T03:57:18;2.22;;;2.03;;
15216;SDS011;7711;46.634;14.318;2023-07-29T03:59:46;3.30;;;2.28;;
15216;SDS011;7711;46.634;14.318;2023-07-29T04:02:13;2.70;;;2.25;;
15216;SDS011;7711;46.634;14.318;2023-07-29T04:04:40;2.67;;;2.47;;
15216;SDS011;7711;46.634;14.318;2023-07-29T04:07:09;2.65;;;2.30;;
15216;SDS011;7711;46.634;14.318;2023-07-29T04:09:36;4.55;;;2.30;;
15216;SDS011;7711;46.634;14.318;2023-07-29T04:12:03;2.75;;;2.25;;
15216;SDS011;7711;46.634;14.318;2023-07-29T04:14:31;3.00;;;2.58;;
15216;SDS011;7711;46.634;14.318;2023-07-29T04:16:59;5.47;;;2.33;;
15216;SDS011;7711;46.634;14.318;2023-07-29T04:19:26;2.67;;;2.28;;
15216;SDS011;7711;46.634;14.318;2023-07-29T04:21:53;2.47;;;2.22;;
15216;SDS011;7711;46.634;14.318;2023-07-29T04:24:19;2.65;;;2.35;;
15216;SDS011;7711;46.634;14.318;2023-07-29T04:26:48;2.35;;;2.15;;
15216;SDS011;7711;46.634;14.318;2023-07-29T04:29:15;2.65;;;2.40;;
15216;SDS011;7711;46.634;14.318;2023-07-29T04:31:42;3.05;;;2.53;;
15216;SDS011;7711;46.634;14.318;2023-07-29T04:34:10;2.78;;;2.50;;
15216;SDS011;7711;46.634;14.318;2023-07-29T04:36:37;2.80;;;2.22;;
15216;SDS011;7711;46.634;14.318;2023-07-29T04:39:04;3.75;;;2.55;;
15216;SDS011;7711;46.634;14.318;2023-07-29T04:41:31;2.63;;;2.40;;
15216;SDS011;7711;46.634;14.318;2023-07-29T04:43:58;4.55;;;2.38;;
15216;SDS011;7711;46.634;14.318;2023-07-29T04:46:25;2.70;;;2.47;;
15216;SDS011;7711;46.634;14.318;2023-07-29T04:48:51;3.88;;;2.70;;
15216;SDS011;7711;46.634;14.318;2023-07-29T04:51:20;2.33;;;2.13;;
15216;SDS011;7711;46.634;14.318;2023-07-29T04:53:47;3.03;;;2.35;;
15216;SDS011;7711;46.634;14.318;2023-07-29T04:56:14;3.95;;;2.40;;
15216;SDS011;7711;46.634;14.318;2023-07-29T04:58:41;2.97;;;2.60;;
15216;SDS011;7711;46.634;14.318;2023-07-29T05:01:08;3.55;;;2.83;;
15216;SDS011;7711;46.634;14.318;2023-07-29T05:03:35;3.67;;;2.45;;
15216;SDS011;7711;46.634;14.318;2023-07-29T05:06:04;2.50;;;2.30;;
15216;SDS011;7711;46.634;14.318;2023-07-29T05:08:33;2.47;;;2.00;;
15216;SDS011;7711;46.634;14.318;2023-07-29T05:11:00;2.78;;;2.30;;
15216;SDS011;7711;46.634;14.318;2023-07-29T05:13:27;2.72;;;2.50;;
15216;SDS011;7711;46.634;14.318;2023-07-29T05:15:54;2.75;;;2.50;;
15216;SDS011;7711;46.634;14.318;2023-07-29T05:18:21;3.13;;;2.33;;
15216;SDS011;7711;46.634;14.318;2023-07-29T05:20:48;3.42;;;2.33;;
15216;SDS011;7711;46.634;14.318;2023-07-29T05:23:15;2.90;;;2.58;;
15216;SDS011;7711;46.634;14.318;2023-07-29T05:25:43;3.05;;;2.38;;
15216;SDS011;7711;46.634;14.318;2023-07-29T05:28:10;3.08;;;2.53;;
15216;SDS011;7711;46.634;14.318;2023-07-29T05:30:37;3.13;;;2.30;;
15216;SDS011;7711;46.634;14.318;2023-07-29T05:33:05;2.50;;;2.30;;
15216;SDS011;7711;46.634;14.318;2023-07-29T05:35:33;2.72;;;2.45;;
15216;SDS011;7711;46.634;14.318;2023-07-29T05:38:00;2.50;;;2.30;;
15216;SDS011;7711;46.634;14.318;2023-07-29T05:40:28;3.35;;;2.42;;
15216;SDS011;7711;46.634;14.318;2023-07-29T05:42:56;3.13;;;2.40;;
15216;SDS011;7711;46.634;14.318;2023-07-29T05:45:23;2.50;;;2.30;;
15216;SDS011;7711;46.634;14.318;2023-07-29T05:47:50;3.53;;;2.58;;
15216;SDS011;7711;46.634;14.318;2023-07-29T05:50:17;2.72;;;2.22;;
15216;SDS011;7711;46.634;14.318;2023-07-29T05:52:44;2.53;;;2.22;;
15216;SDS011;7711;46.634;14.318;2023-07-29T05:55:11;3.05;;;2.33;;
15216;SDS011;7711;46.634;14.318;2023-07-29T05:57:38;2.85;;;2.38;;
15216;SDS011;7711;46.634;14.318;2023-07-29T06:00:07;3.35;;;2.38;;
15216;SDS011;7711;46.634;14.318;2023-07-29T06:02:35;2.53;;;2.10;;
15216;SDS011;7711;46.634;14.318;2023-07-29T06:05:02;2.85;;;2.55;;
15216;SDS011;7711;46.634;14.318;2023-07-29T06:07:29;2.50;;;2.30;;
15216;SDS011;7711;46.634;14.318;2023-07-29T06:09:58;2.60;;;2.40;;
15216;SDS011;7711;46.634;14.318;2023-07-29T06:12:25;2.80;;;2.33;;
15216;SDS011;7711;46.634;14.318;2023-07-29T06:14:52;2.88;;;2.33;;
15216;SDS011;7711;46.634;14.318;2023-07-29T06:17:20;3.03;;;2.15;;
15216;SDS011;7711;46.634;14.318;2023-07-29T06:19:47;2.38;;;2.17;;
15216;SDS011;7711;46.634;14.318;2023-07-29T06:22:14;2.83;;;2.30;;
15216;SDS011;7711;46.634;14.318;2023-07-29T06:24:41;3.63;;;2.60;;
15216;SDS011;7711;46.634;14.318;2023-07-29T06:27:08;2.50;;;2.30;;
15216;SDS011;7711;46.634;14.318;2023-07-29T06:29:35;4.22;;;2.40;;
15216;SDS011;7711;46.634;14.318;2023-07-29T06:32:02;2.60;;;2.40;;
15216;SDS011;7711;46.634;14.318;2023-07-29T06:34:30;2.88;;;2.40;;
15216;SDS011;7711;46.634;14.318;2023-07-29T06:36:57;2.55;;;2.35;;
15216;SDS011;7711;46.634;14.318;2023-07-29T06:39:24;2.63;;;2.33;;
15216;SDS011;7711;46.634;14.318;2023-07-29T06:41:51;2.75;;;2.10;;
15216;SDS011;7711;46.634;14.318;2023-07-29T06:44:18;2.88;;;2.50;;
15216;SDS011;7711;46.634;14.318;2023-07-29T06:46:45;2.42;;;2.15;;
15216;SDS011;7711;46.634;14.318;2023-07-29T06:49:12;5.47;;;2.20;;
15216;SDS011;7711;46.634;14.318;2023-07-29T06:51:41;5.05;;;2.28;;
15216;SDS011;7711;46.634;14.318;2023-07-29T06:54:07;2.90;;;2.40;;
15216;SDS011;7711;46.634;14.318;2023-07-29T06:56:34;2.63;;;2.10;;
15216;SDS011;7711;46.634;14.318;2023-07-29T06:59:02;2.80;;;2.40;;
15216;SDS011;7711;46.634;14.318;2023-07-29T07:01:29;3.63;;;2.00;;
15216;SDS011;7711;46.634;14.318;2023-07-29T07:03:55;2.30;;;2.10;;
15216;SDS011;7711;46.634;14.318;2023-07-29T07:06:23;2.22;;;2.03;;
15216;SDS011;7711;46.634;14.318;2023-07-29T07:08:51;3.33;;;2.17;;
15216;SDS011;7711;46.634;14.318;2023-07-29T07:11:18;2.60;;;2.30;;
15216;SDS011;7711;46.634;14.318;2023-07-29T07:13:45;2.60;;;2.25;;
15216;SDS011;7711;46.634;14.318;2023-07-29T07:16:12;2.78;;;2.22;;
15216;SDS011;7711;46.634;14.318;2023-07-29T07:18:39;3.00;;;2.40;;
15216;SDS011;7711;46.634;14.318;2023-07-29T07:21:06;2.60;;;2.40;;
15216;SDS011;7711;46.634;14.318;2023-07-29T07:23:33;3.88;;;2.20;;
15216;SDS011;7711;46.634;14.318;2023-07-29T07:26:01;4.13;;;2.53;;
15216;SDS011;7711;46.634;14.318;2023-07-29T07:28:28;3.35;;;2.38;;
15216;SDS011;7711;46.634;14.318;2023-07-29T07:30:55;1.95;;;1.85;;
15216;SDS011;7711;46.634;14.318;2023-07-29T07:33:22;2.50;;;2.30;;
15216;SDS011;7711;46.634;14.318;2023-07-29T07:35:49;2.60;;;2.33;;
15216;SDS011;7711;46.634;14.318;2023-07-29T07:38:16;2.40;;;2.20;;
15216;SDS011;7711;46.634;14.318;2023-07-29T07:40:51;2.40;;;2.20;;
15216;SDS011;7711;46.634;14.318;2023-07-29T07:43:21;2.42;;;2.22;;
15216;SDS011;7711;46.634;14.318;2023-07-29T07:45:48;3.03;;;2.40;;
15216;SDS011;7711;46.634;14.318;2023-07-29T07:48:15;2.47;;;2.05;;
15216;SDS011;7711;46.634;14.318;2023-07-29T07:50:42;2.50;;;2.25;;
15216;SDS011;7711;46.634;14.318;2023-07-29T07:53:09;2.15;;;2.00;;
15216;SDS011;7711;46.634;14.318;2023-07-29T07:55:37;2.47;;;2.28;;
15216;SDS011;7711;46.634;14.318;2023-07-29T07:58:04;3.28;;;2.13;;
15216;SDS011;7711;46.634;14.318;2023-07-29T08:00:33;2.45;;;2.05;;
15216;SDS011;7711;46.634;14.318;2023-07-29T08:03:00;4.25;;;2.30;;
15216;SDS011;7711;46.634;14.318;2023-07-29T08:05:26;2.47;;;2.17;;
15216;SDS011;7711;46.634;14.318;2023-07-29T08:07:53;3.47;;;2.10;;
15216;SDS011;7711;46.634;14.318;2023-07-29T08:10:20;2.20;;;2.03;;
15216;SDS011;7711;46.634;14.318;2023-07-29T08:12:47;3.33;;;2.10;;
15216;SDS011;7711;46.634;14.318;2023-07-29T08:15:14;2.63;;;2.42;;
15216;SDS011;7711;46.634;14.318;2023-07-29T08:17:42;2.30;;;2.10;;
15216;SDS011;7711;46.634;14.318;2023-07-29T08:20:09;3.50;;;2.20;;
15216;SDS011;7711;46.634;14.318;2023-07-29T08:22:36;2.03;;;1.92;;
15216;SDS011;7711;46.634;14.318;2023-07-29T08:25:03;2.85;;;2.28;;
15216;SDS011;7711;46.634;14.318;2023-07-29T08:27:33;2.20;;;2.00;;
15216;SDS011;7711;46.634;14.318;2023-07-29T08:30:00;2.50;;;2.30;;
15216;SDS011;7711;46.634;14.318;2023-07-29T08:32:27;2.50;;;2.30;;
15216;SDS011;7711;46.634;14.318;2023-07-29T08:34:55;2.47;;;2.25;;
15216;SDS011;7711;46.634;14.318;2023-07-29T08:37:22;2.58;;;2.30;;
15216;SDS011;7711;46.634;14.318;2023-07-29T08:39:49;2.53;;;2.10;;
15216;SDS011;7711;46.634;14.318;2023-07-29T08:42:19;3.53;;;2.40;;
15216;SDS011;7711;46.634;14.318;2023-07-29T08:44:47;2.20;;;2.00;;
15216;SDS011;7711;46.634;14.318;2023-07-29T08:47:15;2.20;;;2.00;;
15216;SDS011;7711;46.634;14.318;2023-07-29T08:49:42;3.58;;;2.40;;
15216;SDS011;7711;46.634;14.318;2023-07-29T08:52:13;2.92;;;2.03;;
15216;SDS011;7711;46.634;14.318;2023-07-29T08:54:40;2.30;;;2.08;;
15216;SDS011;7711;46.634;14.318;2023-07-29T08:57:07;2.50;;;2.30;;
15216;SDS011;7711;46.634;14.318;2023-07-29T08:59:35;2.40;;;2.20;;
15216;SDS011;7711;46.634;14.318;2023-07-29T09:02:02;2.53;;;2.20;;
15216;SDS011;7711;46.634;14.318;2023-07-29T09:04:30;2.67;;;2.30;;
15216;SDS011;7711;46.634;14.318;2023-07-29T09:06:57;2.35;;;2.15;;
15216;SDS011;7711;46.634;14.318;2023-07-29T09:09:26;3.90;;;2.25;;
15216;SDS011;7711;46.634;14.318;2023-07-29T09:11:53;2.67;;;2.47;;
15216;SDS011;7711;46.634;14.318;2023-07-29T09:14:20;2.72;;;2.20;;
15216;SDS011;7711;46.634;14.318;2023-07-29T09:16:47;2.47;;;2.25;;
15216;SDS011;7711;46.634;14.318;2023-07-29T09:19:14;2.60;;;2.40;;
15216;SDS011;7711;46.634;14.318;2023-07-29T09:21:41;4.28;;;2.28;;
15216;SDS011;7711;46.634;14.318;2023-07-29T09:24:08;2.50;;;2.20;;
15216;SDS011;7711;46.634;14.318;2023-07-29T09:26:37;2.90;;;2.33;;
15216;SDS011;7711;46.634;14.318;2023-07-29T09:29:04;2.45;;;2.25;;
15216;SDS011;7711;46.634;14.318;2023-07-29T09:31:31;2.38;;;2.17;;
15216;SDS011;7711;46.634;14.318;2023-07-29T09:33:58;2.83;;;2.28;;
15216;SDS011;7711;46.634;14.318;2023-07-29T09:36:26;2.50;;;2.30;;
15216;SDS011;7711;46.634;14.318;2023-07-29T09:38:53;2.63;;;2.30;;
15216;SDS011;7711;46.634;14.318;2023-07-29T09:41:21;2.67;;;2.30;;
15216;SDS011;7711;46.634;14.318;2023-07-29T09:43:52;2.58;;;2.38;;
15216;SDS011;7711;46.634;14.318;2023-07-29T09:46:23;2.53;;;2.33;;
15216;SDS011;7711;46.634;14.318;2023-07-29T09:48:52;2.58;;;2.38;;
15216;SDS011;7711;46.634;14.318;2023-07-29T09:51:21;2.55;;;2.35;;
15216;SDS011;7711;46.634;14.318;2023-07-29T09:53:48;3.15;;;2.20;;
15216;SDS011;7711;46.634;14.318;2023-07-29T09:56:17;2.47;;;2.28;;
15216;SDS011;7711;46.634;14.318;2023-07-29T09:58:44;2.22;;;2.03;;
15216;SDS011;7711;46.634;14.318;2023-07-29T10:01:13;2.70;;;2.17;;
15216;SDS011;7711;46.634;14.318;2023-07-29T10:03:40;3.92;;;2.42;;
15216;SDS011;7711;46.634;14.318;2023-07-29T10:06:08;2.40;;;2.20;;
15216;SDS011;7711;46.634;14.318;2023-07-29T10:08:35;2.90;;;1.90;;
15216;SDS011;7711;46.634;14.318;2023-07-29T10:11:04;2.20;;;2.00;;
15216;SDS011;7711;46.634;14.318;2023-07-29T10:13:33;2.42;;;1.95;;
15216;SDS011;7711;46.634;14.318;2023-07-29T10:16:01;2.58;;;2.30;;
15216;SDS011;7711;46.634;14.318;2023-07-29T10:18:31;2.25;;;1.98;;
15216;SDS011;7711;46.634;14.318;2023-07-29T10:20:59;2.30;;;2.10;;
15216;SDS011;7711;46.634;14.318;2023-07-29T10:23:27;2.90;;;2.20;;
15216;SDS011;7711;46.634;14.318;2023-07-29T10:26:01;2.20;;;2.00;;
15216;SDS011;7711;46.634;14.318;2023-07-29T10:28:30;2.63;;;2.10;;
15216;SDS011;7711;46.634;14.318;2023-07-29T10:30:58;2.55;;;2.08;;
15216;SDS011;7711;46.634;14.318;2023-07-29T10:33:25;2.15;;;1.95;;
15216;SDS011;7711;46.634;14.318;2023-07-29T10:35:54;2.70;;;2.30;;
15216;SDS011;7711;46.634;14.318;2023-07-29T10:38:21;2.40;;;2.20;;
15216;SDS011;7711;46.634;14.318;2023-07-29T10:40:51;2.53;;;2.33;;
15216;SDS011;7711;46.634;14.318;2023-07-29T10:43:24;2.30;;;2.10;;
15216;SDS011;7711;46.634;14.318;2023-07-29T10:45:51;2.30;;;2.10;;
15216;SDS011;7711;46.634;14.318;2023-07-29T10:51:28;2.47;;;2.20;;
15216;SDS011;7711;46.634;14.318;2023-07-29T10:53:58;2.40;;;2.20;;
15216;SDS011;7711;46.634;14.318;2023-07-29T10:56:27;3.13;;;2.45;;
15216;SDS011;7711;46.634;14.318;2023-07-29T11:01:58;2.50;;;2.30;;
15216;SDS011;7711;46.634;14.318;2023-07-29T11:04:26;2.25;;;2.08;;
15216;SDS011;7711;46.634;14.318;2023-07-29T11:09:57;2.67;;;2.20;;
15216;SDS011;7711;46.634;14.318;2023-07-29T11:12:33;2.33;;;2.10;;
15216;SDS011;7711;46.634;14.318;2023-07-29T11:15:03;2.42;;;2.22;;
15216;SDS011;7711;46.634;14.318;2023-07-29T11:17:32;3.15;;;2.20;;
15216;SDS011;7711;46.634;14.318;2023-07-29T11:20:00;4.18;;;2.70;;
15216;SDS011;7711;46.634;14.318;2023-07-29T11:22:29;2.70;;;2.28;;
15216;SDS011;7711;46.634;14.318;2023-07-29T11:24:56;2.35;;;2.15;;
15216;SDS011;7711;46.634;14.318;2023-07-29T11:27:23;2.70;;;2.50;;
15216;SDS011;7711;46.634;14.318;2023-07-29T11:29:50;2.75;;;2.33;;
15216;SDS011;7711;46.634;14.318;2023-07-29T11:32:22;2.42;;;2.22;;
15216;SDS011;7711;46.634;14.318;2023-07-29T11:34:49;2.40;;;2.20;;
15216;SDS011;7711;46.634;14.318;2023-07-29T11:37:16;2.72;;;2.53;;
15216;SDS011;7711;46.634;14.318;2023-07-29T11:39:46;2.50;;;2.30;;
15216;SDS011;7711;46.634;14.318;2023-07-29T11:42:14;3.70;;;2.50;;
15216;SDS011;7711;46.634;14.318;2023-07-29T11:44:41;2.65;;;2.45;;
15216;SDS011;7711;46.634;14.318;2023-07-29T11:47:08;2.65;;;2.40;;
15216;SDS011;7711;46.634;14.318;2023-07-29T11:49:37;2.92;;;2.65;;
15216;SDS011;7711;46.634;14.318;2023-07-29T11:52:06;2.80;;;2.60;;
15216;SDS011;7711;46.634;14.318;2023-07-29T11:54:34;3.95;;;2.80;;
15216;SDS011;7711;46.634;14.318;2023-07-29T11:57:03;3.05;;;2.70;;
15216;SDS011;7711;46.634;14.318;2023-07-29T11:59:33;2.78;;;2.45;;
15216;SDS011;7711;46.634;14.318;2023-07-29T12:02:00;4.60;;;2.70;;
15216;SDS011;7711;46.634;14.318;2023-07-29T12:04:28;2.60;;;2.40;;
15216;SDS011;7711;46.634;14.318;2023-07-29T12:06:55;2.70;;;2.50;;
15216;SDS011;7711;46.634;14.318;2023-07-29T12:09:23;4.93;;;2.70;;
15216;SDS011;7711;46.634;14.318;2023-07-29T12:11:52;3.00;;;2.70;;
15216;SDS011;7711;46.634;14.318;2023-07-29T12:14:20;2.78;;;2.58;;
15216;SDS011;7711;46.634;14.318;2023-07-29T12:16:47;2.63;;;2.42;;
15216;SDS011;7711;46.634;14.318;2023-07-29T12:19:16;3.60;;;3.00;;
15216;SDS011;7711;46.634;14.318;2023-07-29T12:21:44;2.72;;;2.53;;
15216;SDS011;7711;46.634;14.318;2023-07-29T12:24:11;3.47;;;2.92;;
15216;SDS011;7711;46.634;14.318;2023-07-29T12:26:39;3.33;;;2.45;;
15216;SDS011;7711;46.634;14.318;2023-07-29T12:29:12;3.17;;;2.58;;
15216;SDS011;7711;46.634;14.318;2023-07-29T12:31:41;2.70;;;2.50;;
15216;SDS011;7711;46.634;14.318;2023-07-29T12:34:08;3.05;;;2.80;;
15216;SDS011;7711;46.634;14.318;2023-07-29T12:36:43;3.25;;;2.95;;
15216;SDS011;7711;46.634;14.318;2023-07-29T12:39:20;2.70;;;2.50;;
15216;SDS011;7711;46.634;14.318;2023-07-29T12:41:49;3.20;;;2.65;;
15216;SDS011;7711;46.634;14.318;2023-07-29T12:44:17;3.13;;;2.83;;
15216;SDS011;7711;46.634;14.318;2023-07-29T12:46:46;3.30;;;2.75;;
15216;SDS011;7711;46.634;14.318;2023-07-29T12:49:13;2.83;;;2.60;;
15216;SDS011;7711;46.634;14.318;2023-07-29T12:51:40;3.53;;;2.63;;
15216;SDS011;7711;46.634;14.318;2023-07-29T12:54:07;4.57;;;2.60;;
15216;SDS011;7711;46.634;14.318;2023-07-29T12:56:34;2.92;;;2.63;;
15216;SDS011;7711;46.634;14.318;2023-07-29T12:59:01;3.30;;;3.00;;
15216;SDS011;7711;46.634;14.318;2023-07-29T13:01:28;3.25;;;2.92;;
15216;SDS011;7711;46.634;14.318;2023-07-29T13:03:57;3.42;;;3.00;;
15216;SDS011;7711;46.634;14.318;2023-07-29T13:06:24;3.47;;;2.60;;
15216;SDS011;7711;46.634;14.318;2023-07-29T13:08:51;2.90;;;2.70;;
15216;SDS011;7711;46.634;14.318;2023-07-29T13:11:18;2.72;;;2.53;;
15216;SDS011;7711;46.634;14.318;2023-07-29T13:13:45;3.53;;;2.78;;
15216;SDS011;7711;46.634;14.318;2023-07-29T13:16:12;2.95;;;2.70;;
15216;SDS011;7711;46.634;14.318;2023-07-29T13:18:39;2.97;;;2.60;;
15216;SDS011;7711;46.634;14.318;2023-07-29T13:21:08;3.35;;;2.90;;
15216;SDS011;7711;46.634;14.318;2023-07-29T13:23:35;2.83;;;2.58;;
15216;SDS011;7711;46.634;14.318;2023-07-29T13:26:02;3.00;;;2.67;;
15216;SDS011;7711;46.634;14.318;2023-07-29T13:28:29;3.30;;;2.97;;
15216;SDS011;7711;46.634;14.318;2023-07-29T13:30:56;3.13;;;2.80;;
15216;SDS011;7711;46.634;14.318;2023-07-29T13:33:23;3.30;;;3.00;;
15216;SDS011;7711;46.634;14.318;2023-07-29T13:35:50;3.22;;;2.92;;
15216;SDS011;7711;46.634;14.318;2023-07-29T13:38:18;2.95;;;2.58;;
15216;SDS011;7711;46.634;14.318;2023-07-29T13:40:46;3.53;;;2.78;;
15216;SDS011;7711;46.634;14.318;2023-07-29T13:43:16;3.17;;;2.88;;
15216;SDS011;7711;46.634;14.318;2023-07-29T13:45:42;3.05;;;2.85;;
15216;SDS011;7711;46.634;14.318;2023-07-29T13:48:09;3.10;;;2.90;;
15216;SDS011;7711;46.634;14.318;2023-07-29T13:50:36;3.47;;;2.90;;
15216;SDS011;7711;46.634;14.318;2023-07-29T13:53:03;3.40;;;3.20;;
15216;SDS011;7711;46.634;14.318;2023-07-29T13:55:31;3.40;;;3.10;;
15216;SDS011;7711;46.634;14.318;2023-07-29T13:57:58;3.60;;;3.10;;
15216;SDS011;7711;46.634;14.318;2023-07-29T14:00:25;3.20;;;2.97;;
15216;SDS011;7711;46.634;14.318;2023-07-29T14:02:52;4.35;;;3.30;;
15216;SDS011;7711;46.634;14.318;2023-07-29T14:05:19;3.67;;;3.05;;
15216;SDS011;7711;46.634;14.318;2023-07-29T14:07:47;3.40;;;3.10;;
15216;SDS011;7711;46.634;14.318;2023-07-29T14:10:14;4.28;;;3.00;;
15216;SDS011;7711;46.634;14.318;2023-07-29T14:12:42;3.60;;;3.30;;
15216;SDS011;7711;46.634;14.318;2023-07-29T14:15:09;3.60;;;3.30;;
15216;SDS011;7711;46.634;14.318;2023-07-29T14:17:36;3.15;;;2.95;;
15216;SDS011;7711;46.634;14.318;2023-07-29T14:20:03;3.42;;;3.13;;
15216;SDS011;7711;46.634;14.318;2023-07-29T14:22:31;3.03;;;2.83;;
15216;SDS011;7711;46.634;14.318;2023-07-29T14:24:58;3.72;;;3.00;;
15216;SDS011;7711;46.634;14.318;2023-07-29T14:27:25;3.20;;;2.90;;
15216;SDS011;7711;46.634;14.318;2023-07-29T14:29:53;3.58;;;3.20;;
15216;SDS011;7711;46.634;14.318;2023-07-29T14:32:20;3.60;;;3.30;;
15216;SDS011;7711;46.634;14.318;2023-07-29T14:34:47;3.50;;;3.20;;
15216;SDS011;7711;46.634;14.318;2023-07-29T14:37:15;3.47;;;3.17;;
15216;SDS011;7711;46.634;14.318;2023-07-29T14:39:42;3.15;;;2.92;;
15216;SDS011;7711;46.634;14.318;2023-07-29T14:42:08;3.60;;;3.30;;
15216;SDS011;7711;46.634;14.318;2023-07-29T14:44:35;3.80;;;3.10;;
15216;SDS011;7711;46.634;14.318;2023-07-29T14:47:04;3.58;;;3.13;;
15216;SDS011;7711;46.634;14.318;2023-07-29T14:49:32;3.67;;;3.38;;
15216;SDS011;7711;46.634;14.318;2023-07-29T14:51:59;3.72;;;3.40;;
15216;SDS011;7711;46.634;14.318;2023-07-29T14:54:25;3.80;;;3.42;;
15216;SDS011;7711;46.634;14.318;2023-07-29T14:56:52;4.38;;;3.97;;
15216;SDS011;7711;46.634;14.318;2023-07-29T14:59:19;4.57;;;3.58;;